sensor_id;sensor_type;location;lat;lon;timestamp;P1;durP1;ratioP1;P2;durP2;ratioP2
56183;SDS011;42086;53.170;6.980;2022-08-03T00:01:40;12.40;;;6.53;;
56183;SDS011;42086;53.170;6.980;2022-08-03T00:04:07;12.98;;;6.45;;
56183;SDS011;42086;53.170;6.980;2022-08-03T00:06:34;17.15;;;7.03;;
56183;SDS011;42086;53.170;6.980;2022-08-03T00:09:01;12.20;;;6.30;;
56183;SDS011;42086;53.170;6.980;2022-08-03T00:11:28;14.85;;;6.95;;
56183;SDS011;42086;53.170;6.980;2022-08-03T00:13:54;11.55;;;6.18;;
56183;SDS011;42086;53.170;6.980;2022-08-03T00:16:20;11.10;;;5.75;;
56183;SDS011;42086;53.170;6.980;2022-08-03T00:18:46;16.80;;;6.43;;
56183;SDS011;42086;53.170;6.980;2022-08-03T00:21:11;12.95;;;5.85;;
56183;SDS011;42086;53.170;6.980;2022-08-03T00:23:37;11.95;;;5.78;;
56183;SDS011;42086;53.170;6.980;2022-08-03T00:26:03;12.20;;;6.22;;
56183;SDS011;42086;53.170;6.980;2022-08-03T00:28:29;15.13;;;5.30;;
56183;SDS011;42086;53.170;6.980;2022-08-03T00:30:55;12.55;;;5.72;;
56183;SDS011;42086;53.170;6.980;2022-08-03T00:33:21;9.00;;;5.50;;
56183;SDS011;42086;53.170;6.980;2022-08-03T00:35:47;10.55;;;5.13;;
56183;SDS011;42086;53.170;6.980;2022-08-03T00:38:13;10.90;;;4.57;;
56183;SDS011;42086;53.170;6.980;2022-08-03T00:40:39;13.45;;;4.63;;
56183;SDS011;42086;53.170;6.980;2022-08-03T00:43:06;10.80;;;4.43;;
56183;SDS011;42086;53.170;6.980;2022-08-03T00:45:33;13.68;;;4.65;;
56183;SDS011;42086;53.170;6.980;2022-08-03T00:48:02;10.18;;;4.70;;
56183;SDS011;42086;53.170;6.980;2022-08-03T00:50:31;9.23;;;4.15;;
56183;SDS011;42086;53.170;6.980;2022-08-03T00:52:59;12.90;;;4.20;;
56183;SDS011;42086;53.170;6.980;2022-08-03T00:55:28;10.95;;;4.47;;
56183;SDS011;42086;53.170;6.980;2022-08-03T00:57:55;7.65;;;4.10;;
56183;SDS011;42086;53.170;6.980;2022-08-03T01:00:22;11.23;;;4.18;;
56183;SDS011;42086;53.170;6.980;2022-08-03T01:02:50;9.32;;;3.88;;
56183;SDS011;42086;53.170;6.980;2022-08-03T01:05:17;11.00;;;3.88;;
56183;SDS011;42086;53.170;6.980;2022-08-03T01:16:30;9.57;;;3.65;;
56183;SDS011;42086;53.170;6.980;2022-08-03T01:22:09;11.65;;;3.92;;
56183;SDS011;42086;53.170;6.980;2022-08-03T01:24:55;8.68;;;3.38;;
56183;SDS011;42086;53.170;6.980;2022-08-03T01:27:54;7.37;;;3.20;;
56183;SDS011;42086;53.170;6.980;2022-08-03T01:30:42;9.23;;;3.45;;
56183;SDS011;42086;53.170;6.980;2022-08-03T01:33:14;6.88;;;3.42;;
56183;SDS011;42086;53.170;6.980;2022-08-03T01:35:51;8.43;;;2.90;;
56183;SDS011;42086;53.170;6.980;2022-08-03T01:38:26;7.85;;;3.00;;
56183;SDS011;42086;53.170;6.980;2022-08-03T01:40:56;9.52;;;3.08;;
56183;SDS011;42086;53.170;6.980;2022-08-03T01:45:55;10.60;;;2.95;;
56183;SDS011;42086;53.170;6.980;2022-08-03T01:48:22;8.82;;;2.47;;
56183;SDS011;42086;53.170;6.980;2022-08-03T01:50:50;8.77;;;2.25;;
56183;SDS011;42086;53.170;6.980;2022-08-03T01:53:19;6.00;;;2.22;;
56183;SDS011;42086;53.170;6.980;2022-08-03T01:55:47;7.55;;;2.83;;
56183;SDS011;42086;53.170;6.980;2022-08-03T01:58:18;6.95;;;2.33;;
56183;SDS011;42086;53.170;6.980;2022-08-03T02:00:48;6.07;;;2.10;;
56183;SDS011;42086;53.170;6.980;2022-08-03T02:03:15;9.88;;;2.63;;
56183;SDS011;42086;53.170;6.980;2022-08-03T02:05:44;4.15;;;1.83;;
56183;SDS011;42086;53.170;6.980;2022-08-03T02:08:12;5.60;;;2.38;;
56183;SDS011;42086;53.170;6.980;2022-08-03T02:10:40;5.55;;;2.10;;
56183;SDS011;42086;53.170;6.980;2022-08-03T02:13:07;7.70;;;2.05;;
56183;SDS011;42086;53.170;6.980;2022-08-03T02:15:35;4.10;;;2.13;;
56183;SDS011;42086;53.170;6.980;2022-08-03T02:18:02;4.68;;;2.03;;
56183;SDS011;42086;53.170;6.980;2022-08-03T02:20:32;8.48;;;2.30;;
56183;SDS011;42086;53.170;6.980;2022-08-03T02:23:00;5.30;;;2.53;;
56183;SDS011;42086;53.170;6.980;2022-08-03T02:25:26;7.32;;;2.25;;
56183;SDS011;42086;53.170;6.980;2022-08-03T02:27:55;7.72;;;2.50;;
56183;SDS011;42086;53.170;6.980;2022-08-03T02:30:26;6.55;;;2.03;;
56183;SDS011;42086;53.170;6.980;2022-08-03T02:32:57;8.95;;;3.15;;
56183;SDS011;42086;53.170;6.980;2022-08-03T02:35:25;6.93;;;2.40;;
56183;SDS011;42086;53.170;6.980;2022-08-03T02:37:58;5.50;;;2.42;;
56183;SDS011;42086;53.170;6.980;2022-08-03T02:40:27;5.95;;;2.50;;
56183;SDS011;42086;53.170;6.980;2022-08-03T02:42:56;3.80;;;2.05;;
56183;SDS011;42086;53.170;6.980;2022-08-03T02:45:25;7.82;;;2.92;;
56183;SDS011;42086;53.170;6.980;2022-08-03T02:47:54;6.93;;;2.35;;
56183;SDS011;42086;53.170;6.980;2022-08-03T02:50:24;8.70;;;2.50;;
56183;SDS011;42086;53.170;6.980;2022-08-03T02:52:51;6.53;;;2.97;;
56183;SDS011;42086;53.170;6.980;2022-08-03T02:55:19;9.93;;;3.63;;
56183;SDS011;42086;53.170;6.980;2022-08-03T02:57:47;11.05;;;3.70;;
56183;SDS011;42086;53.170;6.980;2022-08-03T03:00:14;10.70;;;3.75;;
56183;SDS011;42086;53.170;6.980;2022-08-03T03:02:42;8.50;;;4.35;;
56183;SDS011;42086;53.170;6.980;2022-08-03T03:05:08;10.07;;;3.83;;
56183;SDS011;42086;53.170;6.980;2022-08-03T03:07:36;9.73;;;4.13;;
56183;SDS011;42086;53.170;6.980;2022-08-03T03:10:03;9.32;;;3.88;;
56183;SDS011;42086;53.170;6.980;2022-08-03T03:12:32;10.88;;;4.15;;
56183;SDS011;42086;53.170;6.980;2022-08-03T03:14:59;8.20;;;3.78;;
56183;SDS011;42086;53.170;6.980;2022-08-03T03:17:25;13.48;;;3.92;;
56183;SDS011;42086;53.170;6.980;2022-08-03T03:19:52;15.35;;;3.80;;
56183;SDS011;42086;53.170;6.980;2022-08-03T03:22:19;9.68;;;4.22;;
56183;SDS011;42086;53.170;6.980;2022-08-03T03:24:47;11.80;;;4.40;;
56183;SDS011;42086;53.170;6.980;2022-08-03T03:27:15;9.57;;;4.63;;
56183;SDS011;42086;53.170;6.980;2022-08-03T03:29:42;12.05;;;4.28;;
56183;SDS011;42086;53.170;6.980;2022-08-03T03:32:08;9.80;;;4.28;;
56183;SDS011;42086;53.170;6.980;2022-08-03T03:34:34;11.15;;;3.95;;
56183;SDS011;42086;53.170;6.980;2022-08-03T03:37:01;8.20;;;4.47;;
56183;SDS011;42086;53.170;6.980;2022-08-03T03:39:27;9.55;;;4.28;;
56183;SDS011;42086;53.170;6.980;2022-08-03T03:41:53;8.45;;;3.78;;
56183;SDS011;42086;53.170;6.980;2022-08-03T03:44:19;9.77;;;4.43;;
56183;SDS011;42086;53.170;6.980;2022-08-03T03:46:45;13.98;;;4.30;;
56183;SDS011;42086;53.170;6.980;2022-08-03T03:49:11;10.45;;;4.22;;
56183;SDS011;42086;53.170;6.980;2022-08-03T03:51:37;10.07;;;4.13;;
56183;SDS011;42086;53.170;6.980;2022-08-03T03:54:03;12.60;;;4.32;;
56183;SDS011;42086;53.170;6.980;2022-08-03T03:56:32;11.10;;;4.05;;
56183;SDS011;42086;53.170;6.980;2022-08-03T03:58:58;11.77;;;4.15;;
56183;SDS011;42086;53.170;6.980;2022-08-03T04:01:24;6.93;;;3.53;;
56183;SDS011;42086;53.170;6.980;2022-08-03T04:03:50;10.63;;;4.30;;
56183;SDS011;42086;53.170;6.980;2022-08-03T04:06:16;11.43;;;4.38;;
56183;SDS011;42086;53.170;6.980;2022-08-03T04:09:02;12.57;;;5.03;;
56183;SDS011;42086;53.170;6.980;2022-08-03T04:11:50;8.82;;;3.78;;
56183;SDS011;42086;53.170;6.980;2022-08-03T04:14:18;12.40;;;4.40;;
56183;SDS011;42086;53.170;6.980;2022-08-03T04:16:49;11.73;;;3.65;;
56183;SDS011;42086;53.170;6.980;2022-08-03T04:19:22;12.20;;;4.77;;
56183;SDS011;42086;53.170;6.980;2022-08-03T04:21:53;12.13;;;4.57;;
56183;SDS011;42086;53.170;6.980;2022-08-03T04:24:24;11.90;;;3.97;;
56183;SDS011;42086;53.170;6.980;2022-08-03T04:26:53;8.57;;;4.03;;
56183;SDS011;42086;53.170;6.980;2022-08-03T04:29:21;8.75;;;4.65;;
56183;SDS011;42086;53.170;6.980;2022-08-03T04:31:50;10.10;;;4.47;;
56183;SDS011;42086;53.170;6.980;2022-08-03T04:34:18;8.52;;;4.85;;
56183;SDS011;42086;53.170;6.980;2022-08-03T04:36:47;10.13;;;5.15;;
56183;SDS011;42086;53.170;6.980;2022-08-03T04:39:19;12.25;;;5.00;;
56183;SDS011;42086;53.170;6.980;2022-08-03T04:41:56;7.75;;;5.10;;
56183;SDS011;42086;53.170;6.980;2022-08-03T04:44:24;12.35;;;4.88;;
56183;SDS011;42086;53.170;6.980;2022-08-03T04:46:52;13.70;;;5.45;;
56183;SDS011;42086;53.170;6.980;2022-08-03T04:49:20;12.00;;;5.43;;
56183;SDS011;42086;53.170;6.980;2022-08-03T04:51:47;9.57;;;5.47;;
56183;SDS011;42086;53.170;6.980;2022-08-03T04:54:14;9.77;;;5.18;;
56183;SDS011;42086;53.170;6.980;2022-08-03T04:56:44;10.20;;;5.00;;
56183;SDS011;42086;53.170;6.980;2022-08-03T04:59:10;10.00;;;4.78;;
56183;SDS011;42086;53.170;6.980;2022-08-03T05:01:38;10.98;;;5.20;;
56183;SDS011;42086;53.170;6.980;2022-08-03T05:04:06;10.95;;;5.32;;
56183;SDS011;42086;53.170;6.980;2022-08-03T05:06:32;11.55;;;4.45;;
56183;SDS011;42086;53.170;6.980;2022-08-03T05:08:58;10.93;;;5.10;;
56183;SDS011;42086;53.170;6.980;2022-08-03T05:11:24;9.70;;;5.07;;
56183;SDS011;42086;53.170;6.980;2022-08-03T05:13:51;14.00;;;5.10;;
56183;SDS011;42086;53.170;6.980;2022-08-03T05:16:17;12.60;;;4.80;;
56183;SDS011;42086;53.170;6.980;2022-08-03T05:18:43;11.63;;;4.18;;
56183;SDS011;42086;53.170;6.980;2022-08-03T05:21:10;12.55;;;4.32;;
56183;SDS011;42086;53.170;6.980;2022-08-03T05:23:41;8.80;;;4.18;;
56183;SDS011;42086;53.170;6.980;2022-08-03T05:26:08;10.27;;;4.05;;
56183;SDS011;42086;53.170;6.980;2022-08-03T05:28:36;11.70;;;4.00;;
56183;SDS011;42086;53.170;6.980;2022-08-03T05:31:03;10.65;;;4.30;;
56183;SDS011;42086;53.170;6.980;2022-08-03T05:33:29;13.32;;;4.40;;
56183;SDS011;42086;53.170;6.980;2022-08-03T05:35:56;12.32;;;4.20;;
56183;SDS011;42086;53.170;6.980;2022-08-03T05:38:22;12.43;;;3.97;;
56183;SDS011;42086;53.170;6.980;2022-08-03T05:40:48;16.75;;;4.43;;
56183;SDS011;42086;53.170;6.980;2022-08-03T05:43:14;11.68;;;4.32;;
56183;SDS011;42086;53.170;6.980;2022-08-03T05:45:41;10.38;;;3.92;;
56183;SDS011;42086;53.170;6.980;2022-08-03T05:48:07;17.58;;;4.10;;
56183;SDS011;42086;53.170;6.980;2022-08-03T05:50:33;15.48;;;4.20;;
56183;SDS011;42086;53.170;6.980;2022-08-03T05:53:00;18.88;;;4.57;;
56183;SDS011;42086;53.170;6.980;2022-08-03T05:55:27;9.52;;;3.95;;
56183;SDS011;42086;53.170;6.980;2022-08-03T05:57:52;11.55;;;3.50;;
56183;SDS011;42086;53.170;6.980;2022-08-03T06:00:18;11.48;;;3.50;;
56183;SDS011;42086;53.170;6.980;2022-08-03T06:02:44;13.30;;;4.15;;
56183;SDS011;42086;53.170;6.980;2022-08-03T06:05:10;11.63;;;3.50;;
56183;SDS011;42086;53.170;6.980;2022-08-03T06:07:36;9.45;;;3.35;;
56183;SDS011;42086;53.170;6.980;2022-08-03T06:10:03;10.60;;;3.53;;
56183;SDS011;42086;53.170;6.980;2022-08-03T06:12:33;11.43;;;4.50;;
56183;SDS011;42086;53.170;6.980;2022-08-03T06:15:03;9.88;;;3.20;;
56183;SDS011;42086;53.170;6.980;2022-08-03T06:17:29;12.88;;;3.45;;
56183;SDS011;42086;53.170;6.980;2022-08-03T06:19:55;12.63;;;3.58;;
56183;SDS011;42086;53.170;6.980;2022-08-03T06:22:21;10.30;;;3.38;;
56183;SDS011;42086;53.170;6.980;2022-08-03T06:24:47;11.02;;;3.67;;
56183;SDS011;42086;53.170;6.980;2022-08-03T06:27:13;11.05;;;3.63;;
56183;SDS011;42086;53.170;6.980;2022-08-03T06:29:39;14.68;;;3.53;;
56183;SDS011;42086;53.170;6.980;2022-08-03T06:32:05;15.23;;;3.40;;
56183;SDS011;42086;53.170;6.980;2022-08-03T06:34:31;13.15;;;3.30;;
56183;SDS011;42086;53.170;6.980;2022-08-03T06:36:57;9.43;;;3.20;;
56183;SDS011;42086;53.170;6.980;2022-08-03T06:39:23;8.98;;;3.58;;
56183;SDS011;42086;53.170;6.980;2022-08-03T06:41:49;11.25;;;3.50;;
56183;SDS011;42086;53.170;6.980;2022-08-03T06:44:15;12.45;;;3.22;;
56183;SDS011;42086;53.170;6.980;2022-08-03T06:46:41;11.40;;;3.92;;
56183;SDS011;42086;53.170;6.980;2022-08-03T06:49:07;15.27;;;3.53;;
56183;SDS011;42086;53.170;6.980;2022-08-03T06:51:33;9.73;;;3.55;;
56183;SDS011;42086;53.170;6.980;2022-08-03T06:53:59;14.25;;;3.95;;
56183;SDS011;42086;53.170;6.980;2022-08-03T06:56:25;18.60;;;4.43;;
56183;SDS011;42086;53.170;6.980;2022-08-03T06:58:51;15.25;;;4.10;;
56183;SDS011;42086;53.170;6.980;2022-08-03T07:01:17;14.02;;;4.22;;
56183;SDS011;42086;53.170;6.980;2022-08-03T07:03:42;11.10;;;3.58;;
56183;SDS011;42086;53.170;6.980;2022-08-03T07:06:08;12.00;;;4.75;;
56183;SDS011;42086;53.170;6.980;2022-08-03T07:08:34;13.48;;;4.43;;
56183;SDS011;42086;53.170;6.980;2022-08-03T07:11:01;12.13;;;3.92;;
56183;SDS011;42086;53.170;6.980;2022-08-03T07:13:27;10.85;;;3.50;;
56183;SDS011;42086;53.170;6.980;2022-08-03T07:15:53;16.08;;;3.78;;
56183;SDS011;42086;53.170;6.980;2022-08-03T07:18:19;15.23;;;3.60;;
56183;SDS011;42086;53.170;6.980;2022-08-03T07:20:45;10.23;;;3.17;;
56183;SDS011;42086;53.170;6.980;2022-08-03T07:23:11;12.02;;;3.17;;
56183;SDS011;42086;53.170;6.980;2022-08-03T07:25:37;9.63;;;3.35;;
56183;SDS011;42086;53.170;6.980;2022-08-03T07:28:03;12.43;;;3.50;;
56183;SDS011;42086;53.170;6.980;2022-08-03T07:30:29;8.90;;;3.40;;
56183;SDS011;42086;53.170;6.980;2022-08-03T07:32:55;10.20;;;3.05;;
56183;SDS011;42086;53.170;6.980;2022-08-03T07:35:21;9.30;;;3.67;;
56183;SDS011;42086;53.170;6.980;2022-08-03T07:37:47;12.57;;;3.70;;
56183;SDS011;42086;53.170;6.980;2022-08-03T07:40:13;10.55;;;3.35;;
56183;SDS011;42086;53.170;6.980;2022-08-03T07:42:39;10.73;;;3.53;;
56183;SDS011;42086;53.170;6.980;2022-08-03T07:45:06;9.65;;;3.10;;
56183;SDS011;42086;53.170;6.980;2022-08-03T07:47:33;9.75;;;3.25;;
56183;SDS011;42086;53.170;6.980;2022-08-03T07:49:59;11.98;;;3.45;;
56183;SDS011;42086;53.170;6.980;2022-08-03T07:52:25;8.85;;;3.25;;
56183;SDS011;42086;53.170;6.980;2022-08-03T07:55:09;13.70;;;3.55;;
56183;SDS011;42086;53.170;6.980;2022-08-03T07:57:35;12.43;;;3.58;;
56183;SDS011;42086;53.170;6.980;2022-08-03T08:00:05;12.00;;;3.08;;
56183;SDS011;42086;53.170;6.980;2022-08-03T08:02:36;10.13;;;3.00;;
56183;SDS011;42086;53.170;6.980;2022-08-03T08:05:03;11.93;;;3.15;;
56183;SDS011;42086;53.170;6.980;2022-08-03T08:07:29;10.38;;;3.10;;
56183;SDS011;42086;53.170;6.980;2022-08-03T08:09:55;9.77;;;2.75;;
56183;SDS011;42086;53.170;6.980;2022-08-03T08:12:21;12.90;;;3.38;;
56183;SDS011;42086;53.170;6.980;2022-08-03T08:14:47;9.13;;;3.17;;
56183;SDS011;42086;53.170;6.980;2022-08-03T08:17:13;12.07;;;2.92;;
56183;SDS011;42086;53.170;6.980;2022-08-03T08:19:40;7.68;;;2.85;;
56183;SDS011;42086;53.170;6.980;2022-08-03T08:22:06;8.52;;;2.90;;
56183;SDS011;42086;53.170;6.980;2022-08-03T08:24:32;15.07;;;3.03;;
56183;SDS011;42086;53.170;6.980;2022-08-03T08:26:59;10.52;;;2.80;;
56183;SDS011;42086;53.170;6.980;2022-08-03T08:29:28;10.15;;;3.28;;
56183;SDS011;42086;53.170;6.980;2022-08-03T08:31:54;10.60;;;3.17;;
56183;SDS011;42086;53.170;6.980;2022-08-03T08:34:20;8.32;;;2.80;;
56183;SDS011;42086;53.170;6.980;2022-08-03T08:36:47;9.07;;;2.65;;
56183;SDS011;42086;53.170;6.980;2022-08-03T08:39:13;7.97;;;2.40;;
56183;SDS011;42086;53.170;6.980;2022-08-03T08:41:39;8.98;;;2.50;;
56183;SDS011;42086;53.170;6.980;2022-08-03T08:44:05;10.85;;;2.90;;
56183;SDS011;42086;53.170;6.980;2022-08-03T08:46:32;10.98;;;2.60;;
56183;SDS011;42086;53.170;6.980;2022-08-03T08:48:58;10.55;;;2.88;;
56183;SDS011;42086;53.170;6.980;2022-08-03T08:51:33;5.60;;;2.03;;
56183;SDS011;42086;53.170;6.980;2022-08-03T08:54:03;6.15;;;2.60;;
56183;SDS011;42086;53.170;6.980;2022-08-03T08:56:33;13.35;;;3.15;;
56183;SDS011;42086;53.170;6.980;2022-08-03T08:59:03;12.15;;;2.90;;
56183;SDS011;42086;53.170;6.980;2022-08-03T09:01:29;9.32;;;3.05;;
56183;SDS011;42086;53.170;6.980;2022-08-03T09:03:55;12.32;;;3.13;;
56183;SDS011;42086;53.170;6.980;2022-08-03T09:06:22;9.35;;;2.60;;
56183;SDS011;42086;53.170;6.980;2022-08-03T09:08:48;11.45;;;2.97;;
56183;SDS011;42086;53.170;6.980;2022-08-03T09:11:15;8.20;;;2.92;;
56183;SDS011;42086;53.170;6.980;2022-08-03T09:13:44;8.13;;;2.58;;
56183;SDS011;42086;53.170;6.980;2022-08-03T09:16:12;9.50;;;2.60;;
56183;SDS011;42086;53.170;6.980;2022-08-03T09:18:44;7.88;;;2.90;;
56183;SDS011;42086;53.170;6.980;2022-08-03T09:21:26;9.93;;;2.50;;
56183;SDS011;42086;53.170;6.980;2022-08-03T09:23:56;9.50;;;2.70;;
56183;SDS011;42086;53.170;6.980;2022-08-03T09:26:24;9.30;;;3.17;;
56183;SDS011;42086;53.170;6.980;2022-08-03T09:28:58;12.73;;;3.08;;
56183;SDS011;42086;53.170;6.980;2022-08-03T09:34:00;7.60;;;2.90;;
56183;SDS011;42086;53.170;6.980;2022-08-03T09:36:39;12.82;;;3.45;;
56183;SDS011;42086;53.170;6.980;2022-08-03T09:39:13;10.88;;;2.90;;
56183;SDS011;42086;53.170;6.980;2022-08-03T09:41:41;11.05;;;2.72;;
56183;SDS011;42086;53.170;6.980;2022-08-03T09:44:08;10.02;;;2.40;;
56183;SDS011;42086;53.170;6.980;2022-08-03T09:46:48;10.55;;;2.80;;
56183;SDS011;42086;53.170;6.980;2022-08-03T09:49:14;9.40;;;3.08;;
56183;SDS011;42086;53.170;6.980;2022-08-03T09:51:40;8.07;;;2.78;;
56183;SDS011;42086;53.170;6.980;2022-08-03T09:54:06;11.82;;;3.08;;
56183;SDS011;42086;53.170;6.980;2022-08-03T09:56:39;13.10;;;3.17;;
56183;SDS011;42086;53.170;6.980;2022-08-03T09:59:10;10.63;;;3.08;;
56183;SDS011;42086;53.170;6.980;2022-08-03T10:01:36;8.85;;;2.70;;
56183;SDS011;42086;53.170;6.980;2022-08-03T10:04:10;9.70;;;2.80;;
56183;SDS011;42086;53.170;6.980;2022-08-03T10:06:38;7.15;;;2.72;;
56183;SDS011;42086;53.170;6.980;2022-08-03T10:09:09;12.48;;;2.95;;
56183;SDS011;42086;53.170;6.980;2022-08-03T10:11:36;13.23;;;3.28;;
56183;SDS011;42086;53.170;6.980;2022-08-03T10:14:04;7.97;;;2.50;;
56183;SDS011;42086;53.170;6.980;2022-08-03T10:16:33;7.53;;;2.80;;
56183;SDS011;42086;53.170;6.980;2022-08-03T10:19:04;8.40;;;2.60;;
56183;SDS011;42086;53.170;6.980;2022-08-03T10:21:37;10.07;;;2.50;;
56183;SDS011;42086;53.170;6.980;2022-08-03T10:24:05;12.07;;;3.35;;
56183;SDS011;42086;53.170;6.980;2022-08-03T10:26:35;8.60;;;3.15;;
56183;SDS011;42086;53.170;6.980;2022-08-03T10:29:05;12.68;;;3.33;;
56183;SDS011;42086;53.170;6.980;2022-08-03T10:31:39;8.57;;;2.90;;
56183;SDS011;42086;53.170;6.980;2022-08-03T10:34:21;10.88;;;2.97;;
56183;SDS011;42086;53.170;6.980;2022-08-03T10:36:48;9.50;;;2.30;;
56183;SDS011;42086;53.170;6.980;2022-08-03T10:39:18;8.85;;;2.60;;
56183;SDS011;42086;53.170;6.980;2022-08-03T10:41:46;11.70;;;2.95;;
56183;SDS011;42086;53.170;6.980;2022-08-03T10:44:17;11.00;;;2.78;;
56183;SDS011;42086;53.170;6.980;2022-08-03T10:49:12;10.82;;;2.80;;
56183;SDS011;42086;53.170;6.980;2022-08-03T10:51:40;7.75;;;2.67;;
56183;SDS011;42086;53.170;6.980;2022-08-03T10:57:01;10.77;;;2.90;;
56183;SDS011;42086;53.170;6.980;2022-08-03T11:02:11;11.98;;;2.97;;
56183;SDS011;42086;53.170;6.980;2022-08-03T11:04:38;12.63;;;2.85;;
56183;SDS011;42086;53.170;6.980;2022-08-03T11:09:40;10.25;;;2.80;;
56183;SDS011;42086;53.170;6.980;2022-08-03T11:12:26;13.30;;;2.83;;
56183;SDS011;42086;53.170;6.980;2022-08-03T11:15:04;8.00;;;2.72;;
56183;SDS011;42086;53.170;6.980;2022-08-03T11:17:32;8.52;;;3.03;;
56183;SDS011;42086;53.170;6.980;2022-08-03T11:19:59;13.38;;;2.90;;
56183;SDS011;42086;53.170;6.980;2022-08-03T11:22:25;14.07;;;3.28;;
56183;SDS011;42086;53.170;6.980;2022-08-03T11:25:18;10.95;;;2.78;;
56183;SDS011;42086;53.170;6.980;2022-08-03T11:27:44;10.82;;;2.72;;
56183;SDS011;42086;53.170;6.980;2022-08-03T11:30:22;11.88;;;2.88;;
56183;SDS011;42086;53.170;6.980;2022-08-03T11:32:56;13.57;;;3.47;;
56183;SDS011;42086;53.170;6.980;2022-08-03T11:43:42;12.73;;;2.95;;
56183;SDS011;42086;53.170;6.980;2022-08-03T11:45:59;12.30;;;3.03;;
56183;SDS011;42086;53.170;6.980;2022-08-03T11:48:26;12.43;;;3.45;;
56183;SDS011;42086;53.170;6.980;2022-08-03T11:51:07;17.92;;;3.67;;
56183;SDS011;42086;53.170;6.980;2022-08-03T11:53:46;12.50;;;3.08;;
56183;SDS011;42086;53.170;6.980;2022-08-03T11:56:26;16.45;;;2.95;;
56183;SDS011;42086;53.170;6.980;2022-08-03T11:58:54;11.45;;;3.03;;
56183;SDS011;42086;53.170;6.980;2022-08-03T12:01:23;10.43;;;2.80;;
56183;SDS011;42086;53.170;6.980;2022-08-03T12:03:49;14.13;;;2.75;;
56183;SDS011;42086;53.170;6.980;2022-08-03T12:06:16;13.68;;;3.45;;
56183;SDS011;42086;53.170;6.980;2022-08-03T12:08:43;12.85;;;3.03;;
56183;SDS011;42086;53.170;6.980;2022-08-03T12:11:11;14.00;;;2.80;;
56183;SDS011;42086;53.170;6.980;2022-08-03T12:13:40;13.52;;;2.95;;
56183;SDS011;42086;53.170;6.980;2022-08-03T12:16:21;15.25;;;3.08;;
56183;SDS011;42086;53.170;6.980;2022-08-03T12:18:59;14.50;;;3.30;;
56183;SDS011;42086;53.170;6.980;2022-08-03T12:21:27;12.73;;;3.08;;
56183;SDS011;42086;53.170;6.980;2022-08-03T12:23:58;8.80;;;3.13;;
56183;SDS011;42086;53.170;6.980;2022-08-03T12:26:26;11.60;;;2.92;;
56183;SDS011;42086;53.170;6.980;2022-08-03T12:28:53;19.23;;;3.40;;
56183;SDS011;42086;53.170;6.980;2022-08-03T12:31:19;10.50;;;2.80;;
56183;SDS011;42086;53.170;6.980;2022-08-03T12:34:02;14.48;;;2.80;;
56183;SDS011;42086;53.170;6.980;2022-08-03T12:36:33;13.05;;;2.72;;
56183;SDS011;42086;53.170;6.980;2022-08-03T12:39:00;10.50;;;2.70;;
56183;SDS011;42086;53.170;6.980;2022-08-03T12:41:32;15.13;;;2.80;;
56183;SDS011;42086;53.170;6.980;2022-08-03T12:44:05;10.50;;;2.67;;
56183;SDS011;42086;53.170;6.980;2022-08-03T12:46:34;16.45;;;3.38;;
56183;SDS011;42086;53.170;6.980;2022-08-03T12:49:09;13.27;;;2.92;;
56183;SDS011;42086;53.170;6.980;2022-08-03T12:54:08;13.02;;;2.72;;
56183;SDS011;42086;53.170;6.980;2022-08-03T12:57:01;12.25;;;2.63;;
56183;SDS011;42086;53.170;6.980;2022-08-03T12:59:29;11.40;;;2.67;;
56183;SDS011;42086;53.170;6.980;2022-08-03T13:01:57;12.45;;;2.72;;
56183;SDS011;42086;53.170;6.980;2022-08-03T13:04:27;13.48;;;2.28;;
56183;SDS011;42086;53.170;6.980;2022-08-03T13:07:02;11.35;;;2.35;;
56183;SDS011;42086;53.170;6.980;2022-08-03T13:09:30;10.20;;;2.30;;
56183;SDS011;42086;53.170;6.980;2022-08-03T13:17:12;6.93;;;2.30;;
56183;SDS011;42086;53.170;6.980;2022-08-03T13:19:39;6.88;;;2.15;;
56183;SDS011;42086;53.170;6.980;2022-08-03T13:22:14;10.45;;;1.90;;
56183;SDS011;42086;53.170;6.980;2022-08-03T13:24:46;9.25;;;2.15;;
56183;SDS011;42086;53.170;6.980;2022-08-03T13:27:13;8.77;;;2.10;;
56183;SDS011;42086;53.170;6.980;2022-08-03T13:29:39;12.00;;;2.03;;
56183;SDS011;42086;53.170;6.980;2022-08-03T13:32:07;9.57;;;2.00;;
56183;SDS011;42086;53.170;6.980;2022-08-03T13:34:34;7.32;;;1.58;;
56183;SDS011;42086;53.170;6.980;2022-08-03T13:37:00;8.82;;;2.53;;
56183;SDS011;42086;53.170;6.980;2022-08-03T13:39:26;8.93;;;1.63;;
56183;SDS011;42086;53.170;6.980;2022-08-03T13:41:52;10.35;;;1.98;;
56183;SDS011;42086;53.170;6.980;2022-08-03T13:44:18;6.95;;;2.10;;
56183;SDS011;42086;53.170;6.980;2022-08-03T13:46:44;4.68;;;1.60;;
56183;SDS011;42086;53.170;6.980;2022-08-03T13:49:11;8.93;;;1.85;;
56183;SDS011;42086;53.170;6.980;2022-08-03T13:51:37;7.57;;;1.92;;
56183;SDS011;42086;53.170;6.980;2022-08-03T13:54:03;5.25;;;1.50;;
56183;SDS011;42086;53.170;6.980;2022-08-03T13:56:29;8.40;;;1.40;;
56183;SDS011;42086;53.170;6.980;2022-08-03T13:58:56;6.82;;;1.23;;
56183;SDS011;42086;53.170;6.980;2022-08-03T14:01:22;7.75;;;1.40;;
56183;SDS011;42086;53.170;6.980;2022-08-03T14:03:49;7.65;;;1.40;;
56183;SDS011;42086;53.170;6.980;2022-08-03T14:06:21;7.33;;;1.43;;
56183;SDS011;42086;53.170;6.980;2022-08-03T14:08:48;11.48;;;2.08;;
56183;SDS011;42086;53.170;6.980;2022-08-03T14:11:14;6.00;;;1.77;;
56183;SDS011;42086;53.170;6.980;2022-08-03T14:13:40;7.03;;;1.88;;
56183;SDS011;42086;53.170;6.980;2022-08-03T14:16:06;8.85;;;1.50;;
56183;SDS011;42086;53.170;6.980;2022-08-03T14:18:32;6.80;;;1.52;;
56183;SDS011;42086;53.170;6.980;2022-08-03T14:20:59;5.75;;;1.50;;
56183;SDS011;42086;53.170;6.980;2022-08-03T14:23:27;6.72;;;1.73;;
56183;SDS011;42086;53.170;6.980;2022-08-03T14:25:53;6.47;;;1.45;;
56183;SDS011;42086;53.170;6.980;2022-08-03T14:28:19;7.65;;;1.92;;
56183;SDS011;42086;53.170;6.980;2022-08-03T14:30:46;6.88;;;2.33;;
56183;SDS011;42086;53.170;6.980;2022-08-03T14:33:12;7.25;;;2.13;;
56183;SDS011;42086;53.170;6.980;2022-08-03T14:35:39;10.52;;;2.67;;
56183;SDS011;42086;53.170;6.980;2022-08-03T14:38:05;10.77;;;2.30;;
56183;SDS011;42086;53.170;6.980;2022-08-03T14:40:31;9.65;;;2.08;;
56183;SDS011;42086;53.170;6.980;2022-08-03T14:42:56;12.50;;;2.20;;
56183;SDS011;42086;53.170;6.980;2022-08-03T14:45:23;9.07;;;2.35;;
56183;SDS011;42086;53.170;6.980;2022-08-03T14:47:49;8.63;;;1.95;;
56183;SDS011;42086;53.170;6.980;2022-08-03T14:50:15;7.80;;;2.08;;
56183;SDS011;42086;53.170;6.980;2022-08-03T14:52:42;10.30;;;2.22;;
56183;SDS011;42086;53.170;6.980;2022-08-03T14:55:11;10.50;;;2.17;;
56183;SDS011;42086;53.170;6.980;2022-08-03T14:57:37;8.15;;;2.47;;
56183;SDS011;42086;53.170;6.980;2022-08-03T15:00:03;9.48;;;2.38;;
56183;SDS011;42086;53.170;6.980;2022-08-03T15:02:30;6.85;;;2.13;;
56183;SDS011;42086;53.170;6.980;2022-08-03T15:04:57;7.53;;;2.00;;
56183;SDS011;42086;53.170;6.980;2022-08-03T15:07:23;9.43;;;2.30;;
56183;SDS011;42086;53.170;6.980;2022-08-03T15:09:49;9.32;;;2.28;;
56183;SDS011;42086;53.170;6.980;2022-08-03T15:12:15;8.98;;;2.05;;
56183;SDS011;42086;53.170;6.980;2022-08-03T15:14:42;14.40;;;2.45;;
56183;SDS011;42086;53.170;6.980;2022-08-03T15:17:08;9.02;;;2.13;;
56183;SDS011;42086;53.170;6.980;2022-08-03T15:19:34;11.70;;;2.42;;
56183;SDS011;42086;53.170;6.980;2022-08-03T15:22:00;7.55;;;2.70;;
56183;SDS011;42086;53.170;6.980;2022-08-03T15:24:27;10.25;;;2.28;;
56183;SDS011;42086;53.170;6.980;2022-08-03T15:26:53;13.82;;;2.20;;
56183;SDS011;42086;53.170;6.980;2022-08-03T15:29:19;12.45;;;2.42;;
56183;SDS011;42086;53.170;6.980;2022-08-03T15:31:45;9.68;;;2.00;;